sensor_id;sensor_type;location;lat;lon;timestamp;P1;durP1;ratioP1;P2;durP2;ratioP2
22679;SDS011;11507;44.858;10.374;2023-10-31T00:01:54;6.45;;;1.35;;
22679;SDS011;11507;44.858;10.374;2023-10-31T00:04:20;5.75;;;1.20;;
22679;SDS011;11507;44.858;10.374;2023-10-31T00:06:47;3.97;;;1.30;;
22679;SDS011;11507;44.858;10.374;2023-10-31T00:09:13;3.00;;;0.90;;
22679;SDS011;11507;44.858;10.374;2023-10-31T00:11:41;7.35;;;1.20;;
22679;SDS011;11507;44.858;10.374;2023-10-31T00:14:08;5.10;;;1.20;;
22679;SDS011;11507;44.858;10.374;2023-10-31T00:16:34;8.05;;;1.40;;
22679;SDS011;11507;44.858;10.374;2023-10-31T00:19:00;4.63;;;1.00;;
22679;SDS011;11507;44.858;10.374;2023-10-31T00:21:29;4.90;;;1.17;;
22679;SDS011;11507;44.858;10.374;2023-10-31T00:23:58;4.55;;;0.90;;
22679;SDS011;11507;44.858;10.374;2023-10-31T00:26:24;4.18;;;1.08;;
22679;SDS011;11507;44.858;10.374;2023-10-31T00:28:52;2.70;;;0.82;;
22679;SDS011;11507;44.858;10.374;2023-10-31T00:31:18;7.60;;;0.93;;
22679;SDS011;11507;44.858;10.374;2023-10-31T00:33:44;4.90;;;0.90;;
22679;SDS011;11507;44.858;10.374;2023-10-31T00:36:10;3.55;;;1.00;;
22679;SDS011;11507;44.858;10.374;2023-10-31T00:38:37;6.40;;;1.08;;
22679;SDS011;11507;44.858;10.374;2023-10-31T00:41:03;3.95;;;1.10;;
22679;SDS011;11507;44.858;10.374;2023-10-31T00:43:29;4.35;;;0.77;;
22679;SDS011;11507;44.858;10.374;2023-10-31T00:45:55;4.22;;;0.90;;
22679;SDS011;11507;44.858;10.374;2023-10-31T00:48:21;5.05;;;0.95;;
22679;SDS011;11507;44.858;10.374;2023-10-31T00:50:49;4.45;;;0.80;;
22679;SDS011;11507;44.858;10.374;2023-10-31T00:53:15;6.15;;;1.20;;
22679;SDS011;11507;44.858;10.374;2023-10-31T00:55:42;5.97;;;1.17;;
22679;SDS011;11507;44.858;10.374;2023-10-31T00:58:09;5.93;;;0.90;;
22679;SDS011;11507;44.858;10.374;2023-10-31T01:00:36;4.75;;;1.00;;
22679;SDS011;11507;44.858;10.374;2023-10-31T01:03:03;3.50;;;0.80;;
22679;SDS011;11507;44.858;10.374;2023-10-31T01:05:29;2.88;;;0.80;;
22679;SDS011;11507;44.858;10.374;2023-10-31T01:07:55;3.55;;;1.00;;
22679;SDS011;11507;44.858;10.374;2023-10-31T01:10:21;4.25;;;0.88;;
22679;SDS011;11507;44.858;10.374;2023-10-31T01:12:48;6.43;;;1.05;;
22679;SDS011;11507;44.858;10.374;2023-10-31T01:15:14;8.55;;;1.42;;
22679;SDS011;11507;44.858;10.374;2023-10-31T01:17:40;5.57;;;0.95;;
22679;SDS011;11507;44.858;10.374;2023-10-31T01:20:06;5.72;;;1.10;;
22679;SDS011;11507;44.858;10.374;2023-10-31T01:22:34;4.82;;;0.80;;
22679;SDS011;11507;44.858;10.374;2023-10-31T01:25:01;4.03;;;0.93;;
22679;SDS011;11507;44.858;10.374;2023-10-31T01:27:27;7.10;;;1.00;;
22679;SDS011;11507;44.858;10.374;2023-10-31T01:29:53;5.32;;;1.10;;
22679;SDS011;11507;44.858;10.374;2023-10-31T01:32:19;6.72;;;1.20;;
22679;SDS011;11507;44.858;10.374;2023-10-31T01:34:45;5.13;;;0.90;;
22679;SDS011;11507;44.858;10.374;2023-10-31T01:37:11;6.65;;;1.38;;
22679;SDS011;11507;44.858;10.374;2023-10-31T01:39:39;7.10;;;1.30;;
22679;SDS011;11507;44.858;10.374;2023-10-31T01:42:05;6.13;;;1.13;;
22679;SDS011;11507;44.858;10.374;2023-10-31T01:44:31;5.05;;;1.08;;
22679;SDS011;11507;44.858;10.374;2023-10-31T01:46:57;6.90;;;1.10;;
22679;SDS011;11507;44.858;10.374;2023-10-31T01:49:23;3.72;;;0.98;;
22679;SDS011;11507;44.858;10.374;2023-10-31T01:52:08;5.47;;;1.20;;
22679;SDS011;11507;44.858;10.374;2023-10-31T01:54:35;5.60;;;1.15;;
22679;SDS011;11507;44.858;10.374;2023-10-31T01:57:02;3.60;;;1.10;;
22679;SDS011;11507;44.858;10.374;2023-10-31T01:59:30;4.18;;;1.00;;
22679;SDS011;11507;44.858;10.374;2023-10-31T02:01:57;4.43;;;1.00;;
22679;SDS011;11507;44.858;10.374;2023-10-31T02:04:24;5.63;;;1.00;;
22679;SDS011;11507;44.858;10.374;2023-10-31T02:06:50;5.60;;;1.23;;
22679;SDS011;11507;44.858;10.374;2023-10-31T02:09:18;3.60;;;1.00;;
22679;SDS011;11507;44.858;10.374;2023-10-31T02:11:45;3.28;;;1.00;;
22679;SDS011;11507;44.858;10.374;2023-10-31T02:14:11;5.15;;;0.93;;
22679;SDS011;11507;44.858;10.374;2023-10-31T02:16:37;7.93;;;1.40;;
22679;SDS011;11507;44.858;10.374;2023-10-31T02:19:04;6.60;;;1.30;;
22679;SDS011;11507;44.858;10.374;2023-10-31T02:21:31;5.82;;;1.00;;
22679;SDS011;11507;44.858;10.374;2023-10-31T02:23:58;5.13;;;1.20;;
22679;SDS011;11507;44.858;10.374;2023-10-31T02:26:32;5.60;;;1.10;;
22679;SDS011;11507;44.858;10.374;2023-10-31T02:29:00;7.22;;;1.08;;
22679;SDS011;11507;44.858;10.374;2023-10-31T02:31:27;6.28;;;1.63;;
22679;SDS011;11507;44.858;10.374;2023-10-31T02:33:53;4.45;;;1.00;;
22679;SDS011;11507;44.858;10.374;2023-10-31T02:36:19;4.80;;;1.05;;
22679;SDS011;11507;44.858;10.374;2023-10-31T02:38:46;4.60;;;1.00;;
22679;SDS011;11507;44.858;10.374;2023-10-31T02:41:12;4.85;;;1.10;;
22679;SDS011;11507;44.858;10.374;2023-10-31T02:43:39;3.67;;;1.10;;
22679;SDS011;11507;44.858;10.374;2023-10-31T02:46:05;5.03;;;1.10;;
22679;SDS011;11507;44.858;10.374;2023-10-31T02:48:32;3.22;;;1.05;;
22679;SDS011;11507;44.858;10.374;2023-10-31T02:51:07;5.20;;;1.10;;
22679;SDS011;11507;44.858;10.374;2023-10-31T02:53:34;8.18;;;1.13;;
22679;SDS011;11507;44.858;10.374;2023-10-31T02:56:01;3.97;;;1.00;;
22679;SDS011;11507;44.858;10.374;2023-10-31T02:58:28;4.93;;;1.23;;
22679;SDS011;11507;44.858;10.374;2023-10-31T03:00:54;6.43;;;1.42;;
22679;SDS011;11507;44.858;10.374;2023-10-31T03:03:20;5.05;;;1.40;;
22679;SDS011;11507;44.858;10.374;2023-10-31T03:05:46;4.88;;;1.10;;
22679;SDS011;11507;44.858;10.374;2023-10-31T03:08:12;4.13;;;1.33;;
22679;SDS011;11507;44.858;10.374;2023-10-31T03:10:39;6.00;;;1.23;;
22679;SDS011;11507;44.858;10.374;2023-10-31T03:13:06;7.38;;;1.40;;
22679;SDS011;11507;44.858;10.374;2023-10-31T03:15:32;4.28;;;1.02;;
22679;SDS011;11507;44.858;10.374;2023-10-31T03:17:58;4.95;;;1.08;;
22679;SDS011;11507;44.858;10.374;2023-10-31T03:20:26;4.85;;;1.10;;
22679;SDS011;11507;44.858;10.374;2023-10-31T03:22:53;5.25;;;1.25;;
22679;SDS011;11507;44.858;10.374;2023-10-31T03:25:20;3.83;;;1.10;;
22679;SDS011;11507;44.858;10.374;2023-10-31T03:27:48;5.47;;;1.00;;
22679;SDS011;11507;44.858;10.374;2023-10-31T03:30:14;5.88;;;1.00;;
22679;SDS011;11507;44.858;10.374;2023-10-31T03:32:41;6.68;;;1.10;;
22679;SDS011;11507;44.858;10.374;2023-10-31T03:35:07;3.60;;;1.40;;
22679;SDS011;11507;44.858;10.374;2023-10-31T03:37:33;7.13;;;1.20;;
22679;SDS011;11507;44.858;10.374;2023-10-31T03:40:02;3.35;;;1.05;;
22679;SDS011;11507;44.858;10.374;2023-10-31T03:42:28;5.60;;;1.00;;
22679;SDS011;11507;44.858;10.374;2023-10-31T03:44:55;5.18;;;1.25;;
22679;SDS011;11507;44.858;10.374;2023-10-31T03:47:21;5.70;;;1.50;;
22679;SDS011;11507;44.858;10.374;2023-10-31T03:49:47;3.40;;;1.20;;
22679;SDS011;11507;44.858;10.374;2023-10-31T03:52:13;6.45;;;1.17;;
22679;SDS011;11507;44.858;10.374;2023-10-31T03:54:39;3.90;;;1.27;;
22679;SDS011;11507;44.858;10.374;2023-10-31T03:57:06;7.53;;;1.30;;
22679;SDS011;11507;44.858;10.374;2023-10-31T03:59:32;5.32;;;1.25;;
22679;SDS011;11507;44.858;10.374;2023-10-31T04:01:58;5.35;;;1.10;;
22679;SDS011;11507;44.858;10.374;2023-10-31T04:04:24;4.40;;;1.55;;
22679;SDS011;11507;44.858;10.374;2023-10-31T04:06:50;6.15;;;0.98;;
22679;SDS011;11507;44.858;10.374;2023-10-31T04:09:17;4.15;;;1.10;;
22679;SDS011;11507;44.858;10.374;2023-10-31T04:11:43;4.22;;;1.90;;
22679;SDS011;11507;44.858;10.374;2023-10-31T04:14:09;4.20;;;1.33;;
22679;SDS011;11507;44.858;10.374;2023-10-31T04:16:39;6.13;;;1.27;;
22679;SDS011;11507;44.858;10.374;2023-10-31T04:19:11;8.73;;;1.40;;
22679;SDS011;11507;44.858;10.374;2023-10-31T04:21:38;3.60;;;1.20;;
22679;SDS011;11507;44.858;10.374;2023-10-31T04:24:05;4.07;;;1.15;;
22679;SDS011;11507;44.858;10.374;2023-10-31T04:26:31;5.55;;;1.10;;
22679;SDS011;11507;44.858;10.374;2023-10-31T04:28:58;5.10;;;1.38;;
22679;SDS011;11507;44.858;10.374;2023-10-31T04:31:24;4.50;;;1.10;;
22679;SDS011;11507;44.858;10.374;2023-10-31T04:33:50;4.25;;;1.10;;
22679;SDS011;11507;44.858;10.374;2023-10-31T04:36:16;4.00;;;1.15;;
22679;SDS011;11507;44.858;10.374;2023-10-31T04:38:42;10.73;;;1.70;;
22679;SDS011;11507;44.858;10.374;2023-10-31T04:41:08;4.40;;;1.30;;
22679;SDS011;11507;44.858;10.374;2023-10-31T04:43:35;5.10;;;1.50;;
22679;SDS011;11507;44.858;10.374;2023-10-31T04:46:01;6.97;;;1.25;;
22679;SDS011;11507;44.858;10.374;2023-10-31T04:48:27;4.72;;;1.48;;
22679;SDS011;11507;44.858;10.374;2023-10-31T04:50:53;5.35;;;1.60;;
22679;SDS011;11507;44.858;10.374;2023-10-31T04:53:19;4.45;;;1.52;;
22679;SDS011;11507;44.858;10.374;2023-10-31T04:55:45;6.38;;;1.77;;
22679;SDS011;11507;44.858;10.374;2023-10-31T04:58:11;3.72;;;1.75;;
22679;SDS011;11507;44.858;10.374;2023-10-31T05:00:37;5.07;;;1.50;;
22679;SDS011;11507;44.858;10.374;2023-10-31T05:03:04;4.22;;;1.50;;
22679;SDS011;11507;44.858;10.374;2023-10-31T05:05:30;6.95;;;1.50;;
22679;SDS011;11507;44.858;10.374;2023-10-31T05:07:56;6.13;;;1.55;;
22679;SDS011;11507;44.858;10.374;2023-10-31T05:10:23;6.78;;;1.88;;
22679;SDS011;11507;44.858;10.374;2023-10-31T05:12:50;3.70;;;1.38;;
22679;SDS011;11507;44.858;10.374;2023-10-31T05:15:16;2.78;;;0.90;;
22679;SDS011;11507;44.858;10.374;2023-10-31T05:17:42;3.65;;;0.60;;
22679;SDS011;11507;44.858;10.374;2023-10-31T05:20:08;3.33;;;0.60;;
22679;SDS011;11507;44.858;10.374;2023-10-31T05:22:36;4.53;;;0.55;;
22679;SDS011;11507;44.858;10.374;2023-10-31T05:25:02;5.30;;;0.77;;
22679;SDS011;11507;44.858;10.374;2023-10-31T05:27:30;3.47;;;0.55;;
22679;SDS011;11507;44.858;10.374;2023-10-31T05:29:56;3.33;;;0.75;;
22679;SDS011;11507;44.858;10.374;2023-10-31T05:32:22;3.70;;;0.75;;
22679;SDS011;11507;44.858;10.374;2023-10-31T05:34:48;3.10;;;0.65;;
22679;SDS011;11507;44.858;10.374;2023-10-31T05:37:15;4.13;;;0.73;;
22679;SDS011;11507;44.858;10.374;2023-10-31T05:39:41;4.00;;;0.55;;
22679;SDS011;11507;44.858;10.374;2023-10-31T05:42:07;2.13;;;0.40;;
22679;SDS011;11507;44.858;10.374;2023-10-31T05:44:33;4.03;;;0.70;;
22679;SDS011;11507;44.858;10.374;2023-10-31T05:46:59;2.15;;;0.40;;
22679;SDS011;11507;44.858;10.374;2023-10-31T05:49:25;3.60;;;0.75;;
22679;SDS011;11507;44.858;10.374;2023-10-31T05:51:52;3.15;;;0.57;;
22679;SDS011;11507;44.858;10.374;2023-10-31T05:54:18;3.67;;;0.80;;
22679;SDS011;11507;44.858;10.374;2023-10-31T05:56:45;3.95;;;0.68;;
22679;SDS011;11507;44.858;10.374;2023-10-31T05:59:12;6.07;;;0.90;;
22679;SDS011;11507;44.858;10.374;2023-10-31T06:01:38;5.68;;;0.60;;
22679;SDS011;11507;44.858;10.374;2023-10-31T06:04:04;6.53;;;0.60;;
22679;SDS011;11507;44.858;10.374;2023-10-31T06:06:32;4.18;;;0.70;;
22679;SDS011;11507;44.858;10.374;2023-10-31T06:08:58;4.10;;;0.70;;
22679;SDS011;11507;44.858;10.374;2023-10-31T06:11:25;7.00;;;1.08;;
22679;SDS011;11507;44.858;10.374;2023-10-31T06:13:51;5.03;;;0.60;;
22679;SDS011;11507;44.858;10.374;2023-10-31T06:16:17;4.00;;;0.70;;
22679;SDS011;11507;44.858;10.374;2023-10-31T06:18:43;5.70;;;0.73;;
22679;SDS011;11507;44.858;10.374;2023-10-31T06:21:10;2.28;;;0.40;;
22679;SDS011;11507;44.858;10.374;2023-10-31T06:23:37;2.53;;;0.43;;
22679;SDS011;11507;44.858;10.374;2023-10-31T06:26:03;1.23;;;0.20;;
22679;SDS011;11507;44.858;10.374;2023-10-31T06:28:30;2.92;;;0.20;;
22679;SDS011;11507;44.858;10.374;2023-10-31T06:31:00;0.57;;;0.30;;
22679;SDS011;11507;44.858;10.374;2023-10-31T06:33:27;0.73;;;0.28;;
22679;SDS011;11507;44.858;10.374;2023-10-31T06:35:53;0.98;;;0.32;;
22679;SDS011;11507;44.858;10.374;2023-10-31T06:38:19;1.02;;;0.30;;
22679;SDS011;11507;44.858;10.374;2023-10-31T06:40:46;2.40;;;0.30;;
22679;SDS011;11507;44.858;10.374;2023-10-31T06:43:12;1.02;;;0.45;;
22679;SDS011;11507;44.858;10.374;2023-10-31T06:45:38;0.50;;;0.30;;
22679;SDS011;11507;44.858;10.374;2023-10-31T06:48:04;5.00;;;0.40;;
22679;SDS011;11507;44.858;10.374;2023-10-31T06:50:32;0.85;;;0.35;;
22679;SDS011;11507;44.858;10.374;2023-10-31T06:52:58;0.80;;;0.40;;
22679;SDS011;11507;44.858;10.374;2023-10-31T06:55:25;0.75;;;0.40;;
22679;SDS011;11507;44.858;10.374;2023-10-31T07:00:17;0.50;;;0.22;;
22679;SDS011;11507;44.858;10.374;2023-10-31T07:02:43;1.80;;;0.30;;
22679;SDS011;11507;44.858;10.374;2023-10-31T07:05:09;1.38;;;0.40;;
22679;SDS011;11507;44.858;10.374;2023-10-31T07:07:36;3.70;;;0.50;;
22679;SDS011;11507;44.858;10.374;2023-10-31T07:10:02;1.88;;;0.43;;
22679;SDS011;11507;44.858;10.374;2023-10-31T07:12:28;1.60;;;0.30;;
22679;SDS011;11507;44.858;10.374;2023-10-31T07:14:55;2.35;;;0.50;;
22679;SDS011;11507;44.858;10.374;2023-10-31T07:17:25;1.25;;;0.40;;
22679;SDS011;11507;44.858;10.374;2023-10-31T07:19:51;4.60;;;0.60;;
22679;SDS011;11507;44.858;10.374;2023-10-31T07:22:17;2.15;;;0.40;;
22679;SDS011;11507;44.858;10.374;2023-10-31T07:24:44;0.75;;;0.40;;
22679;SDS011;11507;44.858;10.374;2023-10-31T07:27:11;3.25;;;0.32;;
22679;SDS011;11507;44.858;10.374;2023-10-31T07:29:40;0.88;;;0.20;;
22679;SDS011;11507;44.858;10.374;2023-10-31T07:32:09;3.15;;;0.30;;
22679;SDS011;11507;44.858;10.374;2023-10-31T07:34:36;1.75;;;0.32;;
22679;SDS011;11507;44.858;10.374;2023-10-31T07:37:02;1.02;;;0.20;;
22679;SDS011;11507;44.858;10.374;2023-10-31T07:39:29;0.20;;;0.10;;
22679;SDS011;11507;44.858;10.374;2023-10-31T07:41:55;0.25;;;0.10;;
22679;SDS011;11507;44.858;10.374;2023-10-31T07:44:23;0.13;;;0.03;;
22679;SDS011;11507;44.858;10.374;2023-10-31T07:46:50;0.30;;;0.10;;
22679;SDS011;11507;44.858;10.374;2023-10-31T07:49:17;1.08;;;0.20;;
22679;SDS011;11507;44.858;10.374;2023-10-31T07:51:43;0.20;;;0.00;;
22679;SDS011;11507;44.858;10.374;2023-10-31T07:54:11;1.23;;;0.10;;
22679;SDS011;11507;44.858;10.374;2023-10-31T07:56:37;0.40;;;0.10;;
22679;SDS011;11507;44.858;10.374;2023-10-31T07:59:05;0.17;;;0.00;;
22679;SDS011;11507;44.858;10.374;2023-10-31T08:01:33;0.00;;;0.00;;
22679;SDS011;11507;44.858;10.374;2023-10-31T08:04:00;0.22;;;0.10;;
22679;SDS011;11507;44.858;10.374;2023-10-31T08:06:27;0.38;;;0.10;;
22679;SDS011;11507;44.858;10.374;2023-10-31T08:08:53;0.22;;;0.05;;
22679;SDS011;11507;44.858;10.374;2023-10-31T08:11:19;1.65;;;0.10;;
22679;SDS011;11507;44.858;10.374;2023-10-31T08:13:46;1.50;;;0.10;;
22679;SDS011;11507;44.858;10.374;2023-10-31T08:16:16;1.65;;;0.13;;
22679;SDS011;11507;44.858;10.374;2023-10-31T08:18:47;0.05;;;0.00;;
22679;SDS011;11507;44.858;10.374;2023-10-31T08:21:13;1.45;;;0.25;;
22679;SDS011;11507;44.858;10.374;2023-10-31T08:23:39;0.22;;;0.03;;
22679;SDS011;11507;44.858;10.374;2023-10-31T08:26:06;1.58;;;0.13;;
22679;SDS011;11507;44.858;10.374;2023-10-31T08:28:32;1.08;;;0.10;;
22679;SDS011;11507;44.858;10.374;2023-10-31T08:30:59;0.70;;;0.00;;
22679;SDS011;11507;44.858;10.374;2023-10-31T08:33:26;0.68;;;0.10;;
22679;SDS011;11507;44.858;10.374;2023-10-31T08:35:53;0.00;;;0.00;;
22679;SDS011;11507;44.858;10.374;2023-10-31T08:38:19;1.02;;;0.13;;
22679;SDS011;11507;44.858;10.374;2023-10-31T08:40:46;2.08;;;0.15;;
22679;SDS011;11507;44.858;10.374;2023-10-31T08:43:14;0.73;;;0.10;;
22679;SDS011;11507;44.858;10.374;2023-10-31T08:45:41;0.38;;;0.10;;
22679;SDS011;11507;44.858;10.374;2023-10-31T08:48:07;1.73;;;0.10;;
22679;SDS011;11507;44.858;10.374;2023-10-31T08:50:34;0.60;;;0.03;;
22679;SDS011;11507;44.858;10.374;2023-10-31T08:53:00;1.10;;;0.10;;
22679;SDS011;11507;44.858;10.374;2023-10-31T08:55:26;0.68;;;0.10;;
22679;SDS011;11507;44.858;10.374;2023-10-31T08:57:53;1.00;;;0.10;;
22679;SDS011;11507;44.858;10.374;2023-10-31T09:00:19;1.90;;;0.13;;
22679;SDS011;11507;44.858;10.374;2023-10-31T09:02:46;0.20;;;0.03;;
22679;SDS011;11507;44.858;10.374;2023-10-31T09:05:13;0.10;;;0.03;;
22679;SDS011;11507;44.858;10.374;2023-10-31T09:07:39;0.45;;;0.10;;
22679;SDS011;11507;44.858;10.374;2023-10-31T09:10:06;0.32;;;0.10;;
22679;SDS011;11507;44.858;10.374;2023-10-31T09:12:32;1.80;;;0.10;;
22679;SDS011;11507;44.858;10.374;2023-10-31T09:15:00;2.60;;;0.08;;
22679;SDS011;11507;44.858;10.374;2023-10-31T09:17:26;0.20;;;0.00;;
22679;SDS011;11507;44.858;10.374;2023-10-31T09:19:52;1.48;;;0.10;;
22679;SDS011;11507;44.858;10.374;2023-10-31T09:22:19;0.20;;;0.00;;
22679;SDS011;11507;44.858;10.374;2023-10-31T09:24:46;0.20;;;0.00;;
22679;SDS011;11507;44.858;10.374;2023-10-31T09:27:12;0.63;;;0.10;;
22679;SDS011;11507;44.858;10.374;2023-10-31T09:29:39;0.68;;;0.10;;
22679;SDS011;11507;44.858;10.374;2023-10-31T09:32:06;1.73;;;0.10;;
22679;SDS011;11507;44.858;10.374;2023-10-31T09:34:32;0.30;;;0.10;;
22679;SDS011;11507;44.858;10.374;2023-10-31T09:36:58;1.00;;;0.20;;
22679;SDS011;11507;44.858;10.374;2023-10-31T09:39:25;1.20;;;0.10;;
22679;SDS011;11507;44.858;10.374;2023-10-31T09:41:53;0.70;;;0.10;;
22679;SDS011;11507;44.858;10.374;2023-10-31T09:44:20;0.15;;;0.00;;
22679;SDS011;11507;44.858;10.374;2023-10-31T09:46:46;0.20;;;0.00;;
22679;SDS011;11507;44.858;10.374;2023-10-31T09:49:14;0.20;;;0.03;;
22679;SDS011;11507;44.858;10.374;2023-10-31T09:51:42;0.45;;;0.10;;
22679;SDS011;11507;44.858;10.374;2023-10-31T09:54:08;0.73;;;0.20;;
22679;SDS011;11507;44.858;10.374;2023-10-31T09:56:38;0.75;;;0.10;;
22679;SDS011;11507;44.858;10.374;2023-10-31T09:59:04;0.20;;;0.10;;
22679;SDS011;11507;44.858;10.374;2023-10-31T10:01:31;0.95;;;0.10;;
22679;SDS011;11507;44.858;10.374;2023-10-31T10:03:57;0.43;;;0.10;;
22679;SDS011;11507;44.858;10.374;2023-10-31T10:06:24;0.10;;;0.10;;
22679;SDS011;11507;44.858;10.374;2023-10-31T10:08:52;0.70;;;0.10;;
22679;SDS011;11507;44.858;10.374;2023-10-31T10:11:18;0.28;;;0.10;;
22679;SDS011;11507;44.858;10.374;2023-10-31T10:13:44;0.30;;;0.10;;
22679;SDS011;11507;44.858;10.374;2023-10-31T10:16:11;0.30;;;0.10;;
22679;SDS011;11507;44.858;10.374;2023-10-31T10:18:37;3.85;;;0.10;;
22679;SDS011;11507;44.858;10.374;2023-10-31T10:21:05;0.20;;;0.00;;
22679;SDS011;11507;44.858;10.374;2023-10-31T10:23:33;0.68;;;0.20;;
22679;SDS011;11507;44.858;10.374;2023-10-31T10:26:01;1.58;;;0.10;;
22679;SDS011;11507;44.858;10.374;2023-10-31T10:28:34;0.77;;;0.10;;
22679;SDS011;11507;44.858;10.374;2023-10-31T10:31:01;0.50;;;0.10;;
22679;SDS011;11507;44.858;10.374;2023-10-31T10:33:28;0.25;;;0.10;;
22679;SDS011;11507;44.858;10.374;2023-10-31T10:35:54;0.40;;;0.03;;
22679;SDS011;11507;44.858;10.374;2023-10-31T10:38:21;0.75;;;0.10;;
22679;SDS011;11507;44.858;10.374;2023-10-31T10:40:48;0.77;;;0.10;;
22679;SDS011;11507;44.858;10.374;2023-10-31T10:43:20;1.30;;;0.10;;
22679;SDS011;11507;44.858;10.374;2023-10-31T10:45:50;0.60;;;0.10;;
22679;SDS011;11507;44.858;10.374;2023-10-31T10:48:24;0.93;;;0.20;;
22679;SDS011;11507;44.858;10.374;2023-10-31T10:51:04;0.20;;;0.00;;
22679;SDS011;11507;44.858;10.374;2023-10-31T10:53:57;0.75;;;0.10;;
22679;SDS011;11507;44.858;10.374;2023-10-31T10:56:38;0.35;;;0.10;;
22679;SDS011;11507;44.858;10.374;2023-10-31T10:59:19;0.28;;;0.08;;
22679;SDS011;11507;44.858;10.374;2023-10-31T11:01:47;0.15;;;0.10;;
22679;SDS011;11507;44.858;10.374;2023-10-31T11:04:16;1.20;;;0.20;;
22679;SDS011;11507;44.858;10.374;2023-10-31T11:06:45;0.20;;;0.00;;
22679;SDS011;11507;44.858;10.374;2023-10-31T11:09:13;0.10;;;0.00;;
22679;SDS011;11507;44.858;10.374;2023-10-31T11:11:41;0.30;;;0.10;;
22679;SDS011;11507;44.858;10.374;2023-10-31T11:14:13;0.43;;;0.10;;
22679;SDS011;11507;44.858;10.374;2023-10-31T11:16:45;1.15;;;0.10;;
22679;SDS011;11507;44.858;10.374;2023-10-31T11:21:59;0.38;;;0.10;;
22679;SDS011;11507;44.858;10.374;2023-10-31T11:24:32;0.13;;;0.00;;
22679;SDS011;11507;44.858;10.374;2023-10-31T11:27:04;0.30;;;0.10;;
22679;SDS011;11507;44.858;10.374;2023-10-31T11:29:32;1.02;;;0.03;;
22679;SDS011;11507;44.858;10.374;2023-10-31T11:31:58;0.22;;;0.03;;
22679;SDS011;11507;44.858;10.374;2023-10-31T11:34:28;0.30;;;0.10;;
22679;SDS011;11507;44.858;10.374;2023-10-31T11:42:57;0.32;;;0.10;;
22679;SDS011;11507;44.858;10.374;2023-10-31T11:45:30;0.55;;;0.20;;
22679;SDS011;11507;44.858;10.374;2023-10-31T11:48:05;1.17;;;0.10;;
22679;SDS011;11507;44.858;10.374;2023-10-31T11:50:37;0.22;;;0.00;;
22679;SDS011;11507;44.858;10.374;2023-10-31T11:53:08;0.32;;;0.00;;
22679;SDS011;11507;44.858;10.374;2023-10-31T12:00:52;0.10;;;0.00;;
22679;SDS011;11507;44.858;10.374;2023-10-31T12:05:55;0.30;;;0.10;;
22679;SDS011;11507;44.858;10.374;2023-10-31T12:08:33;0.30;;;0.00;;
22679;SDS011;11507;44.858;10.374;2023-10-31T12:11:20;0.80;;;0.20;;
22679;SDS011;11507;44.858;10.374;2023-10-31T12:13:57;0.32;;;0.13;;
22679;SDS011;11507;44.858;10.374;2023-10-31T12:16:34;0.75;;;0.10;;
22679;SDS011;11507;44.858;10.374;2023-10-31T12:19:05;1.33;;;0.20;;
22679;SDS011;11507;44.858;10.374;2023-10-31T12:21:37;1.02;;;0.20;;
22679;SDS011;11507;44.858;10.374;2023-10-31T12:24:12;0.25;;;0.10;;
22679;SDS011;11507;44.858;10.374;2023-10-31T12:26:47;2.60;;;0.20;;
22679;SDS011;11507;44.858;10.374;2023-10-31T12:29:19;0.70;;;0.28;;
22679;SDS011;11507;44.858;10.374;2023-10-31T12:31:53;0.50;;;0.15;;
22679;SDS011;11507;44.858;10.374;2023-10-31T12:34:23;0.50;;;0.10;;
22679;SDS011;11507;44.858;10.374;2023-10-31T12:36:50;1.17;;;0.20;;
22679;SDS011;11507;44.858;10.374;2023-10-31T12:39:19;0.50;;;0.20;;
22679;SDS011;11507;44.858;10.374;2023-10-31T12:41:47;0.60;;;0.20;;
22679;SDS011;11507;44.858;10.374;2023-10-31T12:44:17;1.63;;;0.20;;
22679;SDS011;11507;44.858;10.374;2023-10-31T12:46:49;1.40;;;0.20;;
22679;SDS011;11507;44.858;10.374;2023-10-31T12:49:18;1.35;;;0.30;;
22679;SDS011;11507;44.858;10.374;2023-10-31T12:51:58;1.30;;;0.30;;
22679;SDS011;11507;44.858;10.374;2023-10-31T12:54:30;2.17;;;0.40;;
22679;SDS011;11507;44.858;10.374;2023-10-31T12:57:01;3.72;;;0.50;;
22679;SDS011;11507;44.858;10.374;2023-10-31T12:59:29;3.42;;;0.45;;
22679;SDS011;11507;44.858;10.374;2023-10-31T13:01:57;1.48;;;0.50;;
22679;SDS011;11507;44.858;10.374;2023-10-31T13:04:30;2.50;;;0.40;;
22679;SDS011;11507;44.858;10.374;2023-10-31T13:07:03;2.33;;;0.45;;
22679;SDS011;11507;44.858;10.374;2023-10-31T13:09:38;2.08;;;0.40;;
22679;SDS011;11507;44.858;10.374;2023-10-31T13:12:10;2.10;;;0.50;;
22679;SDS011;11507;44.858;10.374;2023-10-31T13:14:38;2.47;;;0.40;;
22679;SDS011;11507;44.858;10.374;2023-10-31T13:17:05;3.55;;;0.80;;
22679;SDS011;11507;44.858;10.374;2023-10-31T13:19:32;2.45;;;0.60;;
22679;SDS011;11507;44.858;10.374;2023-10-31T13:21:58;3.83;;;0.70;;
22679;SDS011;11507;44.858;10.374;2023-10-31T13:24:30;3.15;;;0.80;;
22679;SDS011;11507;44.858;10.374;2023-10-31T13:26:56;4.35;;;0.70;;
22679;SDS011;11507;44.858;10.374;2023-10-31T13:29:23;4.28;;;0.63;;
22679;SDS011;11507;44.858;10.374;2023-10-31T13:31:50;2.67;;;0.52;;
22679;SDS011;11507;44.858;10.374;2023-10-31T13:34:16;3.95;;;0.70;;
22679;SDS011;11507;44.858;10.374;2023-10-31T13:36:44;3.75;;;0.90;;
22679;SDS011;11507;44.858;10.374;2023-10-31T13:39:11;3.80;;;0.80;;
22679;SDS011;11507;44.858;10.374;2023-10-31T13:41:37;4.43;;;0.80;;
22679;SDS011;11507;44.858;10.374;2023-10-31T13:44:04;4.03;;;0.80;;
22679;SDS011;11507;44.858;10.374;2023-10-31T13:46:30;3.47;;;0.88;;
22679;SDS011;11507;44.858;10.374;2023-10-31T13:48:57;5.30;;;0.98;;
22679;SDS011;11507;44.858;10.374;2023-10-31T13:51:24;4.93;;;0.75;;
22679;SDS011;11507;44.858;10.374;2023-10-31T13:53:50;3.78;;;1.00;;
22679;SDS011;11507;44.858;10.374;2023-10-31T13:56:16;3.95;;;0.95;;
22679;SDS011;11507;44.858;10.374;2023-10-31T13:58:42;5.15;;;1.02;;
22679;SDS011;11507;44.858;10.374;2023-10-31T14:01:09;6.15;;;1.02;;
22679;SDS011;11507;44.858;10.374;2023-10-31T14:03:35;3.63;;;0.80;;
22679;SDS011;11507;44.858;10.374;2023-10-31T14:06:01;9.95;;;1.10;;
22679;SDS011;11507;44.858;10.374;2023-10-31T14:08:27;6.97;;;1.15;;
22679;SDS011;11507;44.858;10.374;2023-10-31T14:10:54;6.50;;;0.90;;
22679;SDS011;11507;44.858;10.374;2023-10-31T14:13:25;5.30;;;1.00;;
22679;SDS011;11507;44.858;10.374;2023-10-31T14:15:51;7.72;;;1.58;;
22679;SDS011;11507;44.858;10.374;2023-10-31T14:18:17;5.45;;;1.00;;
22679;SDS011;11507;44.858;10.374;2023-10-31T14:20:44;8.93;;;1.00;;
22679;SDS011;11507;44.858;10.374;2023-10-31T14:23:10;6.43;;;1.10;;
22679;SDS011;11507;44.858;10.374;2023-10-31T14:25:36;3.88;;;0.90;;
22679;SDS011;11507;44.858;10.374;2023-10-31T14:28:04;4.55;;;1.08;;
22679;SDS011;11507;44.858;10.374;2023-10-31T14:30:31;6.70;;;1.10;;
22679;SDS011;11507;44.858;10.374;2023-10-31T14:32:59;6.18;;;1.23;;
22679;SDS011;11507;44.858;10.374;2023-10-31T14:35:26;7.10;;;1.23;;
22679;SDS011;11507;44.858;10.374;2023-10-31T14:37:53;6.32;;;0.90;;
22679;SDS011;11507;44.858;10.374;2023-10-31T14:40:21;5.95;;;1.10;;
22679;SDS011;11507;44.858;10.374;2023-10-31T14:42:47;7.10;;;1.15;;
22679;SDS011;11507;44.858;10.374;2023-10-31T14:45:16;8.30;;;1.20;;
22679;SDS011;11507;44.858;10.374;2023-10-31T14:47:43;9.20;;;1.20;;
22679;SDS011;11507;44.858;10.374;2023-10-31T14:50:09;6.20;;;1.08;;
22679;SDS011;11507;44.858;10.374;2023-10-31T14:52:36;9.25;;;1.35;;
22679;SDS011;11507;44.858;10.374;2023-10-31T14:55:02;7.50;;;1.25;;